Time;durP1;ratioP1;P1;durP2;ratioP2;P2;SDS_P1;SDS_P2;PMS_P1;PMS_P2;Temp;Humidity;BMP_temperature;BMP_pressure;BME280_temperature;BME280_humidity;BME280_pressure;Samples;Min_cycle;Max_cycle;Signal;HPM_P1;HPM_P2
2023/03/25 00:01:31;;;;;;;4.05;2.60;;;;;;;;;;5064004;28;20492;-80
2023/03/25 00:03:59;;;;;;;5.22;3.10;;;;;;;;;;5065127;28;20415;-79
2023/03/25 00:06:26;;;;;;;6.05;2.85;;;;;;;;;;5066141;28;20419;-80
2023/03/25 00:08:53;;;;;;;6.32;2.55;;;;;;;;;;5061565;28;20474;-81
2023/03/25 00:11:19;;;;;;;5.10;3.10;;;;;;;;;;5063106;28;20428;-79
2023/03/25 00:13:47;;;;;;;7.75;4.07;;;;;;;;;;5066408;28;20429;-79
2023/03/25 00:16:14;;;;;;;6.10;2.60;;;;;;;;;;5069565;28;20410;-79
2023/03/25 00:18:41;;;;;;;7.93;3.00;;;;;;;;;;5062611;28;20437;-81
2023/03/25 00:21:09;;;;;;;6.35;3.25;;;;;;;;;;5064201;28;20407;-81
2023/03/25 00:23:36;;;;;;;8.50;3.40;;;;;;;;;;5062477;28;20648;-81
2023/03/25 00:26:03;;;;;;;5.22;2.60;;;;;;;;;;5062162;28;20421;-81
2023/03/25 00:28:30;;;;;;;5.10;3.00;;;;;;;;;;5064783;28;20421;-83
2023/03/25 00:31:00;;;;;;;4.28;2.63;;;;;;;;;;5062402;28;20417;-81
2023/03/25 00:33:27;;;;;;;7.07;3.30;;;;;;;;;;5061219;28;20453;-79
2023/03/25 00:35:57;;;;;;;6.05;2.65;;;;;;;;;;5064910;28;20412;-80
2023/03/25 00:38:32;;;;;;;6.65;3.13;;;;;;;;;;5067173;28;20434;-79
2023/03/25 00:40:59;;;;;;;6.47;2.78;;;;;;;;;;5063948;28;20464;-79
2023/03/25 00:43:25;;;;;;;5.97;3.60;;;;;;;;;;5063379;28;20452;-79
2023/03/25 00:45:55;;;;;;;6.95;3.10;;;;;;;;;;5061369;28;20407;-82
2023/03/25 00:48:22;;;;;;;7.50;3.47;;;;;;;;;;5062258;28;20417;-79
2023/03/25 00:50:49;;;;;;;6.68;2.97;;;;;;;;;;5066247;28;20407;-79
2023/03/25 00:53:15;;;;;;;4.60;3.20;;;;;;;;;;5063033;28;20439;-80
2023/03/25 00:55:42;;;;;;;6.07;2.90;;;;;;;;;;5066269;28;20413;-81
2023/03/25 00:58:08;;;;;;;10.30;3.10;;;;;;;;;;5063959;28;20436;-81
2023/03/25 01:00:35;;;;;;;6.72;3.20;;;;;;;;;;5065185;28;20416;-81
2023/03/25 01:03:02;;;;;;;6.35;2.78;;;;;;;;;;5066293;28;20964;-81
2023/03/25 01:05:30;;;;;;;5.10;2.78;;;;;;;;;;5065045;28;20498;-81
2023/03/25 01:07:57;;;;;;;4.90;2.75;;;;;;;;;;5063270;28;20454;-79
2023/03/25 01:10:23;;;;;;;6.07;2.90;;;;;;;;;;5061218;28;20414;-81
2023/03/25 01:12:50;;;;;;;6.03;2.88;;;;;;;;;;5062734;28;20425;-81
2023/03/25 01:15:16;;;;;;;5.25;3.10;;;;;;;;;;5064490;28;20418;-79
2023/03/25 01:17:42;;;;;;;6.75;3.03;;;;;;;;;;5062317;28;20421;-79
2023/03/25 01:20:09;;;;;;;5.47;3.00;;;;;;;;;;5060899;28;20436;-79
2023/03/25 01:22:37;;;;;;;4.82;3.00;;;;;;;;;;5061056;28;20805;-81
2023/03/25 01:25:04;;;;;;;8.05;3.20;;;;;;;;;;5050546;28;20953;-80
2023/03/25 01:27:30;;;;;;;5.88;3.50;;;;;;;;;;5045085;28;20459;-79
2023/03/25 01:29:57;;;;;;;7.53;3.30;;;;;;;;;;5051786;28;20410;-79
2023/03/25 01:32:23;;;;;;;7.05;2.90;;;;;;;;;;5062505;28;20419;-79
2023/03/25 01:34:49;;;;;;;6.78;3.63;;;;;;;;;;5063397;28;20411;-80
2023/03/25 01:37:16;;;;;;;7.00;3.60;;;;;;;;;;5067236;28;20418;-80
2023/03/25 01:39:44;;;;;;;7.85;2.90;;;;;;;;;;5062522;28;20431;-80
2023/03/25 01:42:11;;;;;;;8.00;3.58;;;;;;;;;;5061557;28;20429;-80
2023/03/25 01:44:58;;;;;;;7.90;3.20;;;;;;;;;;5056239;28;20424;-80
2023/03/25 01:47:26;;;;;;;8.18;3.70;;;;;;;;;;5063046;28;20422;-80
2023/03/25 01:49:53;;;;;;;6.88;3.28;;;;;;;;;;5067932;28;20473;-80
2023/03/25 01:52:23;;;;;;;6.50;3.50;;;;;;;;;;5065994;28;20496;-80
2023/03/25 01:54:52;;;;;;;12.73;3.70;;;;;;;;;;5064611;28;20415;-80
2023/03/25 01:57:19;;;;;;;7.75;3.90;;;;;;;;;;5068686;28;20792;-79
2023/03/25 01:59:46;;;;;;;9.80;4.18;;;;;;;;;;5070472;28;20905;-80
2023/03/25 02:02:15;;;;;;;8.07;3.72;;;;;;;;;;5061745;28;20426;-80
2023/03/25 02:04:44;;;;;;;5.82;4.28;;;;;;;;;;5067651;28;20492;-80
2023/03/25 02:07:11;;;;;;;11.30;3.90;;;;;;;;;;5066079;28;20436;-81
2023/03/25 02:09:38;;;;;;;6.57;3.78;;;;;;;;;;5065946;28;20409;-80
2023/03/25 02:12:06;;;;;;;5.95;3.60;;;;;;;;;;5066746;28;20800;-80
2023/03/25 02:14:34;;;;;;;6.30;3.50;;;;;;;;;;5061983;28;20412;-81
2023/03/25 02:17:03;;;;;;;6.95;3.60;;;;;;;;;;5066362;28;20412;-80
2023/03/25 02:19:39;;;;;;;7.27;3.77;;;;;;;;;;5066958;28;20420;-80
2023/03/25 02:22:27;;;;;;;4.78;4.00;;;;;;;;;;5062718;28;20891;-80
2023/03/25 02:25:03;;;;;;;9.13;3.97;;;;;;;;;;5066873;28;20418;-80
2023/03/25 02:27:40;;;;;;;8.50;4.30;;;;;;;;;;5069011;28;20412;-79
2023/03/25 02:30:19;;;;;;;6.55;3.70;;;;;;;;;;5066904;28;20926;-79
2023/03/25 02:32:55;;;;;;;8.52;4.10;;;;;;;;;;5065397;28;20435;-79
2023/03/25 02:35:32;;;;;;;9.25;4.50;;;;;;;;;;5065918;28;20487;-79
2023/03/25 02:38:18;;;;;;;6.65;4.13;;;;;;;;;;5063856;28;20429;-79
2023/03/25 02:40:46;;;;;;;5.07;3.50;;;;;;;;;;5065010;28;21116;-79
2023/03/25 02:43:14;;;;;;;7.57;3.60;;;;;;;;;;5066948;28;20433;-79
2023/03/25 02:45:45;;;;;;;7.23;4.20;;;;;;;;;;5065673;28;20429;-79
2023/03/25 02:48:13;;;;;;;5.73;4.30;;;;;;;;;;5064027;28;20425;-79
2023/03/25 02:50:41;;;;;;;11.00;4.63;;;;;;;;;;5064125;28;20786;-79
2023/03/25 02:53:10;;;;;;;8.00;4.10;;;;;;;;;;5068796;28;20912;-81
2023/03/25 02:55:40;;;;;;;7.45;4.05;;;;;;;;;;5067330;28;20417;-79
2023/03/25 02:58:08;;;;;;;4.90;4.20;;;;;;;;;;5065288;28;20421;-79
2023/03/25 03:00:37;;;;;;;5.82;4.00;;;;;;;;;;5064452;28;20415;-79
2023/03/25 03:03:04;;;;;;;8.82;4.40;;;;;;;;;;5061599;28;20440;-79
2023/03/25 03:05:31;;;;;;;6.35;4.10;;;;;;;;;;5065631;28;20423;-79
2023/03/25 03:08:13;;;;;;;7.50;3.90;;;;;;;;;;5066912;28;20427;-79
2023/03/25 03:10:48;;;;;;;8.23;4.50;;;;;;;;;;5064354;28;20425;-81
2023/03/25 03:13:19;;;;;;;7.85;3.90;;;;;;;;;;5063718;28;20452;-81
2023/03/25 03:15:51;;;;;;;9.85;4.43;;;;;;;;;;5061337;28;20412;-81
2023/03/25 03:18:25;;;;;;;8.93;3.70;;;;;;;;;;5063536;28;20420;-80
2023/03/25 03:20:55;;;;;;;7.07;4.10;;;;;;;;;;5063021;28;20420;-81
2023/03/25 03:23:24;;;;;;;6.35;3.53;;;;;;;;;;5065612;28;20425;-81
2023/03/25 03:25:55;;;;;;;6.15;3.80;;;;;;;;;;5065351;28;20429;-80
2023/03/25 03:28:24;;;;;;;4.63;3.40;;;;;;;;;;5064842;28;20944;-80
2023/03/25 03:30:53;;;;;;;7.50;3.63;;;;;;;;;;5061336;28;20429;-80
2023/03/25 03:33:24;;;;;;;9.52;3.85;;;;;;;;;;5066904;28;20431;-81
2023/03/25 03:35:56;;;;;;;7.50;3.45;;;;;;;;;;5065413;28;20416;-79
2023/03/25 03:38:24;;;;;;;7.85;3.83;;;;;;;;;;5061652;28;20457;-79
2023/03/25 03:40:55;;;;;;;7.28;3.70;;;;;;;;;;5064676;28;20422;-79
2023/03/25 03:43:24;;;;;;;7.28;3.60;;;;;;;;;;5063264;28;20512;-81
2023/03/25 03:45:52;;;;;;;6.85;3.47;;;;;;;;;;5062939;28;20420;-81
2023/03/25 03:48:22;;;;;;;8.27;3.60;;;;;;;;;;5065029;28;20439;-81
2023/03/25 03:50:50;;;;;;;7.40;4.00;;;;;;;;;;5048082;28;20935;-80
2023/03/25 03:53:20;;;;;;;6.82;3.10;;;;;;;;;;5065110;28;20423;-80
2023/03/25 03:55:50;;;;;;;7.93;3.90;;;;;;;;;;5062417;28;20419;-80
2023/03/25 03:58:22;;;;;;;8.38;3.90;;;;;;;;;;5062056;28;20427;-79
2023/03/25 04:00:51;;;;;;;6.00;3.85;;;;;;;;;;5064529;28;20427;-79
2023/03/25 04:03:22;;;;;;;7.25;4.05;;;;;;;;;;5062173;28;20416;-79
2023/03/25 04:05:51;;;;;;;5.85;3.60;;;;;;;;;;5063324;28;20512;-79
2023/03/25 04:08:23;;;;;;;8.80;4.00;;;;;;;;;;5066052;28;20423;-79
2023/03/25 04:10:53;;;;;;;7.10;4.03;;;;;;;;;;5064179;28;20413;-79
2023/03/25 04:13:21;;;;;;;5.97;3.95;;;;;;;;;;5062983;28;20451;-80
2023/03/25 04:15:49;;;;;;;10.50;4.30;;;;;;;;;;5061083;28;20423;-79
2023/03/25 04:18:16;;;;;;;6.63;4.28;;;;;;;;;;5060591;28;20425;-79
2023/03/25 04:20:43;;;;;;;8.93;4.90;;;;;;;;;;5062237;28;20417;-80
2023/03/25 04:23:15;;;;;;;10.85;4.90;;;;;;;;;;5064346;28;20496;-80
2023/03/25 04:25:41;;;;;;;8.87;5.30;;;;;;;;;;5063026;28;20471;-80
2023/03/25 04:28:08;;;;;;;8.35;5.20;;;;;;;;;;5066166;28;20773;-80
2023/03/25 04:30:36;;;;;;;10.10;5.00;;;;;;;;;;5059118;28;20414;-80
2023/03/25 04:33:02;;;;;;;11.98;5.10;;;;;;;;;;5062259;28;20942;-80
2023/03/25 04:35:31;;;;;;;7.70;4.60;;;;;;;;;;5060264;28;20419;-80
2023/03/25 04:37:58;;;;;;;11.15;5.60;;;;;;;;;;5062843;28;20473;-80
2023/03/25 04:40:25;;;;;;;10.70;4.90;;;;;;;;;;5057675;28;20424;-80
2023/03/25 04:42:52;;;;;;;9.93;4.70;;;;;;;;;;5062724;28;20830;-80
2023/03/25 04:45:20;;;;;;;7.97;5.00;;;;;;;;;;5065374;28;20462;-80
2023/03/25 04:47:52;;;;;;;7.40;4.80;;;;;;;;;;5065829;28;20413;-80
2023/03/25 04:50:20;;;;;;;7.97;4.97;;;;;;;;;;5062560;28;20452;-79
2023/03/25 04:52:47;;;;;;;7.90;4.80;;;;;;;;;;5064563;28;20500;-80
2023/03/25 04:55:16;;;;;;;10.50;4.90;;;;;;;;;;5060212;28;20421;-80
2023/03/25 04:57:43;;;;;;;9.43;4.80;;;;;;;;;;5062747;28;20430;-79
2023/03/25 05:00:10;;;;;;;9.10;4.50;;;;;;;;;;5060948;28;20415;-79
2023/03/25 05:02:37;;;;;;;11.83;5.40;;;;;;;;;;5064768;28;20421;-81
2023/03/25 05:05:06;;;;;;;6.63;4.75;;;;;;;;;;5058990;28;20846;-81
2023/03/25 05:07:33;;;;;;;9.20;5.35;;;;;;;;;;5063140;28;20438;-79
2023/03/25 05:10:00;;;;;;;9.27;5.45;;;;;;;;;;5059778;28;20418;-79
2023/03/25 05:12:26;;;;;;;10.52;5.07;;;;;;;;;;5060523;28;20496;-79
2023/03/25 05:14:53;;;;;;;8.77;5.30;;;;;;;;;;5061228;28;20471;-79
2023/03/25 05:17:19;;;;;;;9.82;5.25;;;;;;;;;;5058686;28;20419;-81
2023/03/25 05:19:50;;;;;;;11.55;5.45;;;;;;;;;;5062286;28;20492;-81
2023/03/25 05:22:18;;;;;;;9.70;5.55;;;;;;;;;;5057616;28;20931;-81
2023/03/25 05:24:44;;;;;;;7.72;5.65;;;;;;;;;;5064456;28;20409;-81
2023/03/25 05:27:10;;;;;;;11.02;5.90;;;;;;;;;;5069092;28;20416;-79
2023/03/25 05:29:37;;;;;;;9.80;5.45;;;;;;;;;;5064866;28;20408;-80
2023/03/25 05:32:04;;;;;;;11.80;5.70;;;;;;;;;;5067529;28;20535;-79
2023/03/25 05:34:30;;;;;;;9.32;4.80;;;;;;;;;;5063821;28;20939;-79
2023/03/25 05:36:57;;;;;;;13.85;6.00;;;;;;;;;;5062019;28;20421;-79
2023/03/25 05:39:24;;;;;;;9.00;5.18;;;;;;;;;;5062495;28;20421;-79
2023/03/25 05:41:54;;;;;;;12.90;4.90;;;;;;;;;;5066349;28;20428;-79
2023/03/25 05:44:21;;;;;;;10.85;4.47;;;;;;;;;;5067180;28;20428;-79
2023/03/25 05:46:47;;;;;;;16.92;5.28;;;;;;;;;;5064279;28;20439;-80
2023/03/25 05:49:14;;;;;;;8.00;4.33;;;;;;;;;;5065230;28;20415;-80
2023/03/25 05:51:40;;;;;;;10.10;4.03;;;;;;;;;;5067431;28;20805;-80
2023/03/25 05:54:09;;;;;;;8.38;4.20;;;;;;;;;;5062733;28;20435;-80
2023/03/25 05:56:37;;;;;;;12.55;4.80;;;;;;;;;;5064288;28;20412;-79
2023/03/25 05:59:03;;;;;;;10.20;4.88;;;;;;;;;;5062051;28;20427;-80
2023/03/25 06:01:32;;;;;;;7.47;4.40;;;;;;;;;;5066802;28;20423;-79
2023/03/25 06:04:00;;;;;;;8.45;4.20;;;;;;;;;;5064639;28;20429;-80
2023/03/25 06:06:26;;;;;;;10.15;4.68;;;;;;;;;;5064517;28;20421;-79
2023/03/25 06:08:54;;;;;;;10.07;4.90;;;;;;;;;;5064595;28;20476;-81
2023/03/25 06:11:21;;;;;;;7.68;3.80;;;;;;;;;;5057625;28;20416;-81
2023/03/25 06:13:49;;;;;;;8.33;3.97;;;;;;;;;;5063862;28;20428;-81
2023/03/25 06:16:17;;;;;;;10.73;4.70;;;;;;;;;;5057177;28;20413;-80
2023/03/25 06:18:43;;;;;;;7.88;4.00;;;;;;;;;;5067742;28;20467;-80
2023/03/25 06:21:10;;;;;;;7.23;4.20;;;;;;;;;;5065862;28;20418;-80
2023/03/25 06:23:38;;;;;;;8.43;4.55;;;;;;;;;;5065231;28;20519;-81
2023/03/25 06:26:04;;;;;;;7.82;4.20;;;;;;;;;;5064414;28;20415;-80
2023/03/25 06:28:32;;;;;;;5.70;3.85;;;;;;;;;;5066103;28;20415;-81
2023/03/25 06:31:06;;;;;;;8.93;4.13;;;;;;;;;;5061871;28;20408;-80
2023/03/25 06:33:32;;;;;;;7.45;3.80;;;;;;;;;;5062543;28;20415;-81
2023/03/25 06:35:59;;;;;;;8.23;3.40;;;;;;;;;;5064202;28;20418;-81
2023/03/25 06:38:28;;;;;;;7.60;3.60;;;;;;;;;;5061769;28;20433;-81
2023/03/25 06:40:55;;;;;;;7.20;4.30;;;;;;;;;;5065401;28;20420;-81
2023/03/25 06:43:22;;;;;;;11.88;4.28;;;;;;;;;;5064627;28;20432;-81
2023/03/25 06:45:50;;;;;;;7.73;3.97;;;;;;;;;;5066711;28;20474;-81
2023/03/25 06:48:17;;;;;;;7.22;4.30;;;;;;;;;;5058455;28;20409;-80
2023/03/25 06:50:44;;;;;;;6.63;3.97;;;;;;;;;;5060826;28;20502;-81
2023/03/25 06:53:11;;;;;;;10.27;4.20;;;;;;;;;;5066011;28;20427;-80
2023/03/25 06:55:38;;;;;;;12.77;4.30;;;;;;;;;;5064781;28;20508;-81
2023/03/25 06:58:04;;;;;;;7.60;3.88;;;;;;;;;;5061614;28;20466;-80
2023/03/25 07:00:30;;;;;;;7.93;4.40;;;;;;;;;;5047791;28;20436;-81
2023/03/25 07:02:58;;;;;;;10.05;4.20;;;;;;;;;;5043788;28;20438;-81
2023/03/25 07:05:25;;;;;;;9.73;4.10;;;;;;;;;;5042228;28;20429;-80
2023/03/25 07:07:52;;;;;;;10.27;4.30;;;;;;;;;;5042364;28;20509;-80
2023/03/25 07:10:18;;;;;;;8.18;4.50;;;;;;;;;;5042519;28;20427;-81
2023/03/25 07:12:45;;;;;;;7.03;4.10;;;;;;;;;;5046302;28;20841;-81
2023/03/25 07:15:13;;;;;;;8.13;3.85;;;;;;;;;;5040572;28;20421;-81
2023/03/25 07:17:39;;;;;;;8.07;3.70;;;;;;;;;;5045012;28;20425;-81
2023/03/25 07:20:06;;;;;;;6.55;4.47;;;;;;;;;;5044558;28;20930;-81
2023/03/25 07:22:34;;;;;;;7.20;4.20;;;;;;;;;;5043209;28;20441;-80
2023/03/25 07:25:00;;;;;;;10.18;4.32;;;;;;;;;;5043464;28;20433;-81
2023/03/25 07:27:27;;;;;;;11.48;4.53;;;;;;;;;;5043107;28;20499;-80
2023/03/25 07:29:54;;;;;;;7.45;4.00;;;;;;;;;;5041986;28;21869;-81
2023/03/25 07:32:20;;;;;;;12.70;4.40;;;;;;;;;;5041184;28;20411;-81
2023/03/25 07:34:47;;;;;;;9.93;4.90;;;;;;;;;;5041897;28;20434;-81
2023/03/25 07:37:13;;;;;;;12.80;5.10;;;;;;;;;;5039473;28;20430;-81
2023/03/25 07:39:41;;;;;;;12.23;5.50;;;;;;;;;;5046465;28;20425;-81
2023/03/25 07:42:07;;;;;;;9.80;5.03;;;;;;;;;;5046122;28;20458;-81
2023/03/25 07:44:34;;;;;;;12.65;5.20;;;;;;;;;;5043537;28;20425;-81
2023/03/25 07:47:01;;;;;;;10.88;6.10;;;;;;;;;;5043097;28;20426;-81
2023/03/25 07:49:28;;;;;;;16.05;5.85;;;;;;;;;;5042819;28;20415;-80
2023/03/25 07:51:54;;;;;;;13.10;6.00;;;;;;;;;;5040835;28;20420;-80
2023/03/25 07:54:23;;;;;;;8.70;5.80;;;;;;;;;;5041814;28;21383;-80
2023/03/25 07:56:51;;;;;;;15.90;6.20;;;;;;;;;;5039571;28;20443;-80
2023/03/25 07:59:17;;;;;;;12.13;5.77;;;;;;;;;;5042811;28;20824;-80
2023/03/25 08:01:44;;;;;;;9.02;4.20;;;;;;;;;;5040500;28;20435;-80
2023/03/25 08:04:12;;;;;;;9.45;4.30;;;;;;;;;;5045623;28;20532;-80
2023/03/25 08:06:38;;;;;;;5.35;3.35;;;;;;;;;;5041199;28;20526;-80
2023/03/25 08:09:07;;;;;;;8.90;3.90;;;;;;;;;;5039207;28;20924;-80
2023/03/25 08:11:33;;;;;;;8.05;3.28;;;;;;;;;;5042359;28;20461;-79
2023/03/25 08:14:01;;;;;;;6.70;3.10;;;;;;;;;;5043944;28;20453;-80
2023/03/25 08:16:27;;;;;;;6.13;3.17;;;;;;;;;;5040314;28;21026;-80
2023/03/25 08:18:54;;;;;;;7.45;3.47;;;;;;;;;;5044584;28;20422;-80
2023/03/25 08:21:24;;;;;;;3.42;2.45;;;;;;;;;;5042174;28;20429;-80
2023/03/25 08:23:50;;;;;;;8.48;2.20;;;;;;;;;;5041618;28;20415;-80
2023/03/25 08:26:17;;;;;;;4.38;2.70;;;;;;;;;;5040770;28;20419;-80
2023/03/25 08:28:43;;;;;;;7.22;3.03;;;;;;;;;;5044718;28;20921;-80
2023/03/25 08:31:11;;;;;;;6.80;3.00;;;;;;;;;;5043103;28;20949;-80
2023/03/25 08:33:39;;;;;;;7.53;2.30;;;;;;;;;;5041633;28;20799;-80
2023/03/25 08:36:08;;;;;;;6.13;2.50;;;;;;;;;;5041404;28;20448;-80
2023/03/25 08:38:35;;;;;;;6.82;2.60;;;;;;;;;;5022286;28;20419;-80
2023/03/25 08:41:02;;;;;;;8.75;2.33;;;;;;;;;;5046294;28;20428;-80
2023/03/25 08:43:28;;;;;;;4.87;2.53;;;;;;;;;;5041556;28;20432;-80
2023/03/25 08:45:55;;;;;;;9.68;2.40;;;;;;;;;;5039367;28;20418;-80
2023/03/25 08:48:23;;;;;;;8.27;2.70;;;;;;;;;;5043320;28;20442;-80
2023/03/25 08:50:50;;;;;;;7.32;2.00;;;;;;;;;;5042339;28;20423;-80
2023/03/25 08:53:16;;;;;;;6.18;2.30;;;;;;;;;;5043731;28;20416;-80
2023/03/25 08:55:42;;;;;;;8.48;2.40;;;;;;;;;;5066345;28;20913;-80
2023/03/25 08:58:09;;;;;;;7.55;2.20;;;;;;;;;;5062290;28;20412;-80
2023/03/25 09:00:36;;;;;;;8.70;2.60;;;;;;;;;;5066269;28;20801;-80
2023/03/25 09:03:03;;;;;;;9.88;2.60;;;;;;;;;;5063972;28;20493;-80
2023/03/25 09:05:31;;;;;;;7.85;2.75;;;;;;;;;;5063492;28;20426;-80
2023/03/25 09:07:58;;;;;;;4.10;2.20;;;;;;;;;;5065341;28;20423;-80
2023/03/25 09:10:25;;;;;;;6.78;2.33;;;;;;;;;;5069943;28;20433;-80
2023/03/25 09:12:52;;;;;;;11.40;2.63;;;;;;;;;;5065152;28;20814;-80
2023/03/25 09:15:18;;;;;;;5.38;2.50;;;;;;;;;;5067139;28;20415;-80
2023/03/25 09:17:45;;;;;;;8.27;2.60;;;;;;;;;;5065768;28;20429;-80
2023/03/25 09:20:12;;;;;;;9.65;2.95;;;;;;;;;;5063160;28;20415;-80
2023/03/25 09:22:40;;;;;;;6.28;2.67;;;;;;;;;;5061894;28;20422;-80
2023/03/25 09:25:07;;;;;;;8.80;3.00;;;;;;;;;;5061393;28;21046;-80
2023/03/25 09:27:33;;;;;;;4.50;2.70;;;;;;;;;;5064298;28;20423;-80
2023/03/25 09:30:01;;;;;;;9.40;2.47;;;;;;;;;;5067056;28;20442;-80
2023/03/25 09:32:27;;;;;;;7.63;3.28;;;;;;;;;;5061721;28;20421;-80
2023/03/25 09:34:53;;;;;;;6.80;2.40;;;;;;;;;;5065725;28;20423;-80
2023/03/25 09:37:20;;;;;;;5.05;3.10;;;;;;;;;;5062877;28;20403;-80
2023/03/25 09:39:47;;;;;;;9.77;3.40;;;;;;;;;;5061789;28;20924;-80
2023/03/25 09:42:25;;;;;;;11.18;3.38;;;;;;;;;;5060219;28;20925;-80
2023/03/25 09:44:55;;;;;;;10.20;3.20;;;;;;;;;;5060727;28;20420;-80
2023/03/25 09:47:23;;;;;;;9.38;3.95;;;;;;;;;;5064202;28;20897;-80
2023/03/25 09:49:52;;;;;;;12.18;3.50;;;;;;;;;;5062761;28;20416;-80
2023/03/25 09:52:22;;;;;;;9.93;3.08;;;;;;;;;;5063224;28;20413;-80
2023/03/25 09:54:52;;;;;;;12.10;3.60;;;;;;;;;;5064766;28;20428;-80
2023/03/25 09:57:20;;;;;;;7.03;3.40;;;;;;;;;;5066147;28;20430;-80
2023/03/25 09:59:48;;;;;;;11.25;3.95;;;;;;;;;;5066611;28;20415;-80
2023/03/25 10:02:21;;;;;;;10.68;3.70;;;;;;;;;;5065311;28;20520;-81
2023/03/25 10:04:58;;;;;;;13.10;4.00;;;;;;;;;;5066471;28;20428;-81
2023/03/25 10:07:32;;;;;;;8.85;3.88;;;;;;;;;;5067108;28;20427;-80
2023/03/25 10:10:03;;;;;;;4.70;2.10;;;;;;;;;;5060886;28;20930;-80
2023/03/25 10:12:34;;;;;;;3.78;2.00;;;;;;;;;;5064887;28;20433;-80
2023/03/25 10:15:05;;;;;;;4.40;1.70;;;;;;;;;;5062575;28;20423;-80
2023/03/25 10:17:38;;;;;;;5.05;1.75;;;;;;;;;;5061916;28;20429;-80
2023/03/25 10:20:07;;;;;;;5.03;1.65;;;;;;;;;;5062421;28;20480;-80
2023/03/25 10:22:37;;;;;;;3.45;1.70;;;;;;;;;;5068470;28;21183;-80
2023/03/25 10:25:06;;;;;;;4.90;1.90;;;;;;;;;;5063364;28;20483;-80
2023/03/25 10:27:34;;;;;;;4.55;1.90;;;;;;;;;;5062203;28;20910;-80
2023/03/25 10:30:03;;;;;;;5.45;2.20;;;;;;;;;;5065110;28;20423;-80
2023/03/25 10:32:32;;;;;;;6.68;2.40;;;;;;;;;;5062288;28;20546;-80
2023/03/25 10:34:59;;;;;;;7.00;2.20;;;;;;;;;;5064493;28;20423;-80
2023/03/25 10:37:27;;;;;;;4.45;1.70;;;;;;;;;;5063668;28;20920;-80
2023/03/25 10:39:54;;;;;;;7.78;2.08;;;;;;;;;;5059033;28;20447;-80
2023/03/25 10:42:25;;;;;;;6.10;2.13;;;;;;;;;;5066636;28;20430;-80
2023/03/25 10:44:54;;;;;;;8.00;2.70;;;;;;;;;;5062036;28;20914;-80
2023/03/25 10:47:23;;;;;;;7.88;2.50;;;;;;;;;;5067776;28;21361;-80
2023/03/25 10:49:51;;;;;;;11.87;5.07;;;;;;;;;;5064917;28;20427;-78
2023/03/25 10:52:17;;;;;;;12.77;8.95;;;;;;;;;;5066273;28;21149;-80
2023/03/25 10:54:45;;;;;;;11.27;3.60;;;;;;;;;;5067088;28;20935;-80
2023/03/25 10:57:16;;;;;;;10.93;5.00;;;;;;;;;;5060929;28;20850;-80
2023/03/25 10:59:46;;;;;;;11.05;4.50;;;;;;;;;;5064855;28;20425;-79
2023/03/25 11:02:15;;;;;;;8.15;4.50;;;;;;;;;;5066084;28;20431;-79
2023/03/25 11:04:43;;;;;;;9.75;4.95;;;;;;;;;;5056793;28;20431;-79
2023/03/25 11:07:15;;;;;;;12.50;4.60;;;;;;;;;;5061989;28;20432;-79
2023/03/25 11:09:41;;;;;;;10.52;4.15;;;;;;;;;;5065073;28;20947;-79
2023/03/25 11:12:08;;;;;;;11.40;4.50;;;;;;;;;;5063691;28;20428;-79
2023/03/25 11:14:37;;;;;;;9.23;4.45;;;;;;;;;;5060094;28;20421;-79
2023/03/25 11:17:08;;;;;;;13.48;4.80;;;;;;;;;;5061258;28;20437;-78
2023/03/25 11:19:39;;;;;;;11.30;4.55;;;;;;;;;;5062607;28;20416;-80
2023/03/25 11:22:08;;;;;;;11.02;5.20;;;;;;;;;;5062594;28;20515;-79
2023/03/25 11:24:42;;;;;;;7.50;3.80;;;;;;;;;;5062347;28;20423;-77
2023/03/25 11:27:09;;;;;;;4.43;2.40;;;;;;;;;;5063118;28;20421;-78
2023/03/25 11:29:36;;;;;;;8.75;3.80;;;;;;;;;;5064889;28;20411;-79
2023/03/25 11:32:13;;;;;;;8.40;2.90;;;;;;;;;;5067882;28;20431;-78
2023/03/25 11:34:41;;;;;;;8.88;3.08;;;;;;;;;;5064436;28;20423;-80
2023/03/25 11:37:15;;;;;;;5.30;2.92;;;;;;;;;;5065513;28;20477;-79
2023/03/25 11:39:48;;;;;;;8.73;3.43;;;;;;;;;;5061803;28;20448;-76
2023/03/25 11:42:21;;;;;;;12.25;3.50;;;;;;;;;;5063344;28;20441;-79
2023/03/25 11:44:50;;;;;;;8.20;3.10;;;;;;;;;;5063440;28;20454;-77
2023/03/25 11:47:21;;;;;;;8.82;3.88;;;;;;;;;;5062078;28;20420;-79
2023/03/25 11:49:49;;;;;;;11.80;4.50;;;;;;;;;;5066616;28;20928;-77
2023/03/25 11:52:18;;;;;;;8.15;3.70;;;;;;;;;;5064935;28;20431;-79
2023/03/25 11:54:44;;;;;;;8.52;3.67;;;;;;;;;;5065182;28;20420;-79
2023/03/25 11:57:15;;;;;;;9.23;3.47;;;;;;;;;;5065701;28;20827;-77
2023/03/25 11:59:44;;;;;;;8.15;3.25;;;;;;;;;;5061076;28;20417;-78
2023/03/25 12:02:20;;;;;;;7.05;3.80;;;;;;;;;;5063680;28;20438;-77
2023/03/25 12:04:56;;;;;;;6.50;2.60;;;;;;;;;;5066440;28;20419;-79
2023/03/25 12:07:24;;;;;;;5.63;2.10;;;;;;;;;;5063407;28;20429;-79
2023/03/25 12:09:54;;;;;;;7.90;4.05;;;;;;;;;;5062119;28;20427;-77
2023/03/25 12:12:33;;;;;;;6.50;3.92;;;;;;;;;;5061302;28;20425;-77
2023/03/25 12:15:05;;;;;;;6.63;2.67;;;;;;;;;;5062024;28;20436;-77
2023/03/25 12:17:37;;;;;;;6.90;3.20;;;;;;;;;;5064617;28;21048;-77
2023/03/25 12:20:14;;;;;;;4.68;2.90;;;;;;;;;;5059511;28;20419;-77
2023/03/25 12:22:48;;;;;;;11.60;3.40;;;;;;;;;;5061773;28;20425;-77
2023/03/25 12:25:19;;;;;;;4.88;2.70;;;;;;;;;;5064095;28;20696;-78
2023/03/25 12:27:51;;;;;;;9.80;3.03;;;;;;;;;;5065864;28;20412;-77
2023/03/25 12:30:25;;;;;;;5.07;2.20;;;;;;;;;;5062307;28;20477;-78
2023/03/25 12:32:58;;;;;;;5.23;2.40;;;;;;;;;;5064043;28;20460;-77
2023/03/25 12:35:32;;;;;;;8.23;2.65;;;;;;;;;;5059223;28;20421;-77
2023/03/25 12:38:09;;;;;;;7.22;2.63;;;;;;;;;;5065288;28;20797;-77
2023/03/25 12:40:41;;;;;;;6.28;3.38;;;;;;;;;;5062790;28;20427;-78
2023/03/25 12:43:10;;;;;;;8.15;3.20;;;;;;;;;;5063237;28;20433;-77
2023/03/25 12:45:42;;;;;;;6.80;2.65;;;;;;;;;;5058294;28;20928;-78
2023/03/25 12:48:13;;;;;;;8.20;3.15;;;;;;;;;;5064037;28;20411;-78
2023/03/25 12:50:49;;;;;;;5.20;2.37;;;;;;;;;;5064148;28;20502;-78
2023/03/25 12:53:41;;;;;;;7.93;2.80;;;;;;;;;;5063326;28;20428;-78
2023/03/25 12:56:14;;;;;;;6.25;3.00;;;;;;;;;;5050978;28;20437;-78
2023/03/25 12:58:54;;;;;;;5.65;2.30;;;;;;;;;;5061631;28;20934;-77
2023/03/25 13:01:24;;;;;;;6.88;2.30;;;;;;;;;;5063921;28;20428;-78
2023/03/25 13:04:06;;;;;;;6.35;2.20;;;;;;;;;;5061470;28;20417;-78
2023/03/25 13:06:36;;;;;;;8.05;3.47;;;;;;;;;;5062144;28;20426;-77
2023/03/25 13:09:05;;;;;;;9.27;3.42;;;;;;;;;;5064241;28;20423;-78
2023/03/25 13:11:35;;;;;;;8.83;3.87;;;;;;;;;;5065086;28;20428;-77
2023/03/25 13:14:04;;;;;;;9.80;3.80;;;;;;;;;;5064717;28;20422;-77
2023/03/25 13:16:32;;;;;;;10.38;4.15;;;;;;;;;;5063759;28;20913;-78
2023/03/25 13:19:02;;;;;;;8.57;4.63;;;;;;;;;;5064390;28;20412;-79
2023/03/25 13:21:30;;;;;;;11.63;5.63;;;;;;;;;;5062377;28;20430;-79
2023/03/25 13:23:59;;;;;;;10.55;3.40;;;;;;;;;;5063005;28;20414;-79
2023/03/25 13:26:28;;;;;;;10.32;4.30;;;;;;;;;;5063589;28;20436;-77
2023/03/25 13:28:58;;;;;;;11.67;3.57;;;;;;;;;;5060565;28;20497;-77
2023/03/25 13:31:27;;;;;;;9.48;3.30;;;;;;;;;;5061205;28;20437;-79
2023/03/25 13:33:57;;;;;;;8.10;3.00;;;;;;;;;;5064091;28;20448;-80
2023/03/25 13:36:26;;;;;;;11.20;3.47;;;;;;;;;;5063356;28;20432;-79
2023/03/25 13:38:54;;;;;;;7.53;2.50;;;;;;;;;;5060753;28;20435;-79
2023/03/25 13:41:23;;;;;;;6.95;2.40;;;;;;;;;;5064911;28;20427;-77
2023/03/25 13:43:54;;;;;;;6.90;2.37;;;;;;;;;;5062839;28;20930;-78
2023/03/25 13:46:22;;;;;;;10.85;2.75;;;;;;;;;;5063357;28;20419;-80
2023/03/25 13:48:51;;;;;;;7.90;2.15;;;;;;;;;;5063888;28;20417;-80
2023/03/25 13:51:18;;;;;;;11.57;3.17;;;;;;;;;;5067417;28;20839;-80
2023/03/25 13:53:46;;;;;;;10.60;3.17;;;;;;;;;;5063279;28;20905;-80
2023/03/25 13:56:33;;;;;;;12.05;3.33;;;;;;;;;;5063705;28;20464;-79
2023/03/25 13:59:11;;;;;;;7.72;2.30;;;;;;;;;;5043706;28;20425;-79
2023/03/25 14:01:47;;;;;;;7.47;2.55;;;;;;;;;;5064109;28;20435;-78
2023/03/25 14:04:31;;;;;;;5.63;2.20;;;;;;;;;;5064778;28;20426;-78
2023/03/25 14:07:11;;;;;;;5.70;2.50;;;;;;;;;;5065982;28;20424;-80
2023/03/25 14:09:46;;;;;;;9.00;2.67;;;;;;;;;;5062808;28;20498;-80
2023/03/25 14:12:14;;;;;;;8.25;2.70;;;;;;;;;;5066540;28;20433;-80
2023/03/25 14:14:45;;;;;;;7.60;2.38;;;;;;;;;;5060390;28;20421;-80
2023/03/25 14:17:12;;;;;;;7.68;2.83;;;;;;;;;;5066719;28;20422;-80
2023/03/25 14:19:41;;;;;;;7.75;2.90;;;;;;;;;;5063747;28;20429;-80
2023/03/25 14:22:07;;;;;;;5.30;2.57;;;;;;;;;;5062668;28;20794;-79
2023/03/25 14:24:35;;;;;;;7.43;2.72;;;;;;;;;;5062535;28;20433;-80
2023/03/25 14:27:03;;;;;;;11.18;2.13;;;;;;;;;;5065153;28;20851;-79
2023/03/25 14:29:34;;;;;;;6.37;2.60;;;;;;;;;;5063103;28;20518;-80
2023/03/25 14:32:04;;;;;;;5.70;2.30;;;;;;;;;;5068519;28;20434;-79
2023/03/25 14:34:31;;;;;;;4.85;2.03;;;;;;;;;;5058488;28;20431;-79
2023/03/25 14:37:16;;;;;;;7.32;2.13;;;;;;;;;;5064898;28;20795;-79
2023/03/25 14:39:44;;;;;;;9.13;2.72;;;;;;;;;;5063200;28;20425;-80
2023/03/25 14:42:12;;;;;;;8.23;2.80;;;;;;;;;;5063920;28;20779;-80
2023/03/25 14:44:40;;;;;;;10.13;3.00;;;;;;;;;;5064596;28;20420;-79
2023/03/25 14:47:29;;;;;;;6.75;2.42;;;;;;;;;;5064590;28;20432;-79
2023/03/25 14:50:00;;;;;;;9.55;2.88;;;;;;;;;;5061324;28;20479;-80
2023/03/25 14:52:29;;;;;;;8.43;2.75;;;;;;;;;;5065238;28;20423;-80